Time;durP1;ratioP1;P1;durP2;ratioP2;P2;SDS_P1;SDS_P2;PMS_P1;PMS_P2;Temp;Humidity;BMP_temperature;BMP_pressure;BME280_temperature;BME280_humidity;BME280_pressure;Samples;Min_cycle;Max_cycle;Signal;HPM_P1;HPM_P2
2021/09/27 00:00:13;;;;;;;1.83;1.10;;;;;;;;;;5081094;28;20028;-84
2021/09/27 00:02:39;;;;;;;2.38;0.80;;;;;;;;;;5067374;28;20640;-85
2021/09/27 00:05:07;;;;;;;2.17;0.80;;;;;;;;;;5083129;28;20056;-84
2021/09/27 00:07:34;;;;;;;2.35;0.70;;;;;;;;;;5082591;28;20128;-85
2021/09/27 00:10:00;;;;;;;1.80;0.70;;;;;;;;;;5068426;28;20060;-85
2021/09/27 00:12:27;;;;;;;3.85;1.00;;;;;;;;;;5077022;28;20067;-84
2021/09/27 00:14:53;;;;;;;2.95;1.00;;;;;;;;;;5065725;28;20059;-83
2021/09/27 00:17:19;;;;;;;2.10;0.70;;;;;;;;;;5085200;28;20048;-82
2021/09/27 00:19:46;;;;;;;1.55;0.77;;;;;;;;;;5082498;28;20446;-84
2021/09/27 00:22:12;;;;;;;3.22;0.80;;;;;;;;;;5071810;28;20901;-84
2021/09/27 00:24:39;;;;;;;3.03;1.00;;;;;;;;;;5065619;28;20071;-83
2021/09/27 00:27:06;;;;;;;1.48;0.85;;;;;;;;;;5081494;28;20056;-83
2021/09/27 00:29:32;;;;;;;2.72;0.73;;;;;;;;;;5081673;28;20428;-83
2021/09/27 00:31:58;;;;;;;3.03;1.00;;;;;;;;;;5080853;28;20024;-83
2021/09/27 00:34:25;;;;;;;3.45;1.10;;;;;;;;;;5080140;28;20396;-84
2021/09/27 00:36:51;;;;;;;2.05;0.68;;;;;;;;;;5084804;28;20056;-83
2021/09/27 00:39:18;;;;;;;3.35;0.90;;;;;;;;;;5074317;28;20075;-83
2021/09/27 00:41:45;;;;;;;1.77;0.60;;;;;;;;;;5070002;28;20060;-84
2021/09/27 00:44:11;;;;;;;2.30;0.65;;;;;;;;;;5059507;28;20071;-84
2021/09/27 00:46:38;;;;;;;1.33;0.73;;;;;;;;;;5065110;28;20064;-84
2021/09/27 00:49:04;;;;;;;3.08;0.98;;;;;;;;;;5061251;28;20081;-82
2021/09/27 00:51:34;;;;;;;2.78;1.08;;;;;;;;;;5056060;28;20131;-84
2021/09/27 00:54:10;;;;;;;1.40;0.60;;;;;;;;;;5069427;28;20060;-84
2021/09/27 00:56:39;;;;;;;2.90;1.17;;;;;;;;;;5082582;28;20052;-83
2021/09/27 00:59:06;;;;;;;2.15;0.80;;;;;;;;;;5053967;28;20105;-84
2021/09/27 01:01:32;;;;;;;4.45;0.70;;;;;;;;;;5082491;28;20047;-84
2021/09/27 01:03:59;;;;;;;2.30;0.90;;;;;;;;;;5093293;28;20192;-84
2021/09/27 01:06:25;;;;;;;1.45;0.75;;;;;;;;;;5070647;28;20504;-84
2021/09/27 01:08:51;;;;;;;2.33;0.95;;;;;;;;;;5067618;28;20071;-83
2021/09/27 01:11:18;;;;;;;2.17;0.80;;;;;;;;;;5081511;28;20063;-83
2021/09/27 01:13:56;;;;;;;3.40;0.95;;;;;;;;;;5074649;28;20052;-83
2021/09/27 01:16:46;;;;;;;1.80;0.73;;;;;;;;;;5083528;28;20040;-84
2021/09/27 01:19:15;;;;;;;2.22;0.85;;;;;;;;;;5075038;28;20389;-83
2021/09/27 01:21:44;;;;;;;1.73;0.80;;;;;;;;;;5079663;28;20127;-84
2021/09/27 01:24:17;;;;;;;2.92;0.90;;;;;;;;;;5084960;28;20841;-83
2021/09/27 01:26:58;;;;;;;2.60;0.80;;;;;;;;;;5069346;28;20087;-83
2021/09/27 01:29:25;;;;;;;;;;;;;;;;;;5082331;28;20036;-83
2021/09/27 01:31:51;;;;;;;2.70;1.00;;;;;;;;;;5071336;28;19999;-83
2021/09/27 01:34:28;;;;;;;3.08;1.15;;;;;;;;;;5088564;28;20607;-85
2021/09/27 01:36:54;;;;;;;3.17;0.77;;;;;;;;;;5049713;28;20735;-84
2021/09/27 01:39:32;;;;;;;4.05;0.98;;;;;;;;;;5060879;28;20041;-82
2021/09/27 01:42:05;;;;;;;2.08;1.13;;;;;;;;;;5068107;28;20125;-84
2021/09/27 01:44:35;;;;;;;2.63;1.10;;;;;;;;;;5076428;28;20071;-84
2021/09/27 01:47:03;;;;;;;2.72;0.90;;;;;;;;;;5075011;28;20055;-85
2021/09/27 01:49:37;;;;;;;2.17;0.90;;;;;;;;;;5059791;28;20042;-83
2021/09/27 01:52:12;;;;;;;2.85;1.05;;;;;;;;;;5075661;28;20048;-83
2021/09/27 01:54:42;;;;;;;2.83;1.08;;;;;;;;;;5074878;28;20063;-83
2021/09/27 01:57:15;;;;;;;2.88;1.10;;;;;;;;;;5064200;28;20117;-83
2021/09/27 01:59:41;;;;;;;3.33;1.00;;;;;;;;;;5066934;28;20059;-83
2021/09/27 02:02:07;;;;;;;3.47;1.35;;;;;;;;;;5088878;28;20059;-82
2021/09/27 02:04:34;;;;;;;2.05;0.90;;;;;;;;;;5066500;28;20114;-83
2021/09/27 02:07:01;;;;;;;2.72;0.88;;;;;;;;;;5079181;28;20117;-83
2021/09/27 02:09:48;;;;;;;2.22;0.85;;;;;;;;;;5085029;28;20074;-82
2021/09/27 02:12:18;;;;;;;2.92;1.00;;;;;;;;;;5047567;28;20449;-83
2021/09/27 02:14:58;;;;;;;2.08;0.98;;;;;;;;;;5077407;28;20037;-84
2021/09/27 02:17:26;;;;;;;2.30;1.00;;;;;;;;;;5049618;28;20052;-84
2021/09/27 02:20:05;;;;;;;1.35;1.00;;;;;;;;;;5080620;28;20056;-84
2021/09/27 02:22:50;;;;;;;2.08;1.00;;;;;;;;;;5064714;28;20090;-84
2021/09/27 02:25:16;;;;;;;4.22;1.10;;;;;;;;;;5061244;28;20041;-84
2021/09/27 02:27:44;;;;;;;2.85;1.00;;;;;;;;;;5064147;28;20048;-84
2021/09/27 02:30:13;;;;;;;2.25;1.08;;;;;;;;;;5070562;28;20072;-84
2021/09/27 02:32:50;;;;;;;3.33;1.15;;;;;;;;;;5069894;28;20638;-84
2021/09/27 02:35:27;;;;;;;2.95;0.90;;;;;;;;;;5074660;28;20064;-84
2021/09/27 02:38:00;;;;;;;2.42;1.00;;;;;;;;;;5082382;28;21190;-84
2021/09/27 02:40:45;;;;;;;2.25;0.85;;;;;;;;;;5081520;28;20074;-84
2021/09/27 02:43:12;;;;;;;3.50;1.10;;;;;;;;;;5064585;28;20125;-84
2021/09/27 02:45:41;;;;;;;1.60;0.73;;;;;;;;;;5058994;28;20113;-84
2021/09/27 02:48:14;;;;;;;2.72;1.13;;;;;;;;;;5055107;28;20060;-84
2021/09/27 02:50:45;;;;;;;2.15;1.30;;;;;;;;;;5064588;28;25743;-84
2021/09/27 02:53:12;;;;;;;2.90;1.10;;;;;;;;;;5082551;28;20119;-83
2021/09/27 02:55:53;;;;;;;2.67;1.10;;;;;;;;;;5076596;28;20036;-82
2021/09/27 02:58:19;;;;;;;;;;;;;;;;;;5061260;28;20043;-83
2021/09/27 03:01:04;;;;;;;2.25;1.20;;;;;;;;;;5064549;28;20020;-83
2021/09/27 03:03:38;;;;;;;3.70;1.10;;;;;;;;;;5042804;28;20048;-83
2021/09/27 03:06:04;;;;;;;2.85;1.10;;;;;;;;;;5065862;28;20098;-83
2021/09/27 03:08:30;;;;;;;2.47;1.30;;;;;;;;;;5044687;28;20051;-85
2021/09/27 03:11:05;;;;;;;2.47;0.95;;;;;;;;;;5053491;28;20040;-84
2021/09/27 03:13:31;;;;;;;2.28;1.10;;;;;;;;;;5066893;28;20028;-82
2021/09/27 03:16:07;;;;;;;3.20;0.98;;;;;;;;;;5055676;28;20121;-84
2021/09/27 03:18:34;;;;;;;3.05;1.63;;;;;;;;;;5083776;28;20024;-84
2021/09/27 03:21:11;;;;;;;2.75;1.10;;;;;;;;;;5067591;28;20584;-84
2021/09/27 03:23:40;;;;;;;1.85;1.00;;;;;;;;;;5074015;28;20068;-82
2021/09/27 03:26:16;;;;;;;1.33;0.80;;;;;;;;;;5070024;28;20056;-84
2021/09/27 03:28:42;;;;;;;1.70;1.05;;;;;;;;;;5083004;28;20199;-84
2021/09/27 03:31:27;;;;;;;2.30;1.20;;;;;;;;;;5078637;28;20064;-84
2021/09/27 03:34:12;;;;;;;4.28;1.25;;;;;;;;;;5084582;28;20086;-85
2021/09/27 03:36:57;;;;;;;2.25;1.10;;;;;;;;;;5085168;28;20101;-83
2021/09/27 03:39:37;;;;;;;2.97;1.40;;;;;;;;;;5082850;28;20553;-83
2021/09/27 03:42:03;;;;;;;2.83;1.23;;;;;;;;;;5071433;28;20130;-84
2021/09/27 03:44:35;;;;;;;2.78;1.23;;;;;;;;;;5075074;28;20060;-84
2021/09/27 03:47:04;;;;;;;3.72;1.10;;;;;;;;;;5077507;28;20060;-84
2021/09/27 03:49:39;;;;;;;3.47;1.50;;;;;;;;;;5063488;28;20212;-84
2021/09/27 03:52:13;;;;;;;2.75;1.10;;;;;;;;;;5084283;28;20412;-83
2021/09/27 03:54:44;;;;;;;2.20;1.20;;;;;;;;;;5082929;28;20059;-83
2021/09/27 03:57:11;;;;;;;;;;;;;;;;;;5087661;28;20067;-84
2021/09/27 03:59:44;;;;;;;3.78;1.40;;;;;;;;;;5087375;28;19916;-83
2021/09/27 04:02:17;;;;;;;3.67;1.63;;;;;;;;;;5081574;28;20747;-84
2021/09/27 04:04:49;;;;;;;3.33;1.23;;;;;;;;;;5081330;28;20102;-85
2021/09/27 04:07:34;;;;;;;2.17;1.10;;;;;;;;;;5086442;28;20135;-84
2021/09/27 04:10:05;;;;;;;2.78;1.58;;;;;;;;;;5077309;28;20154;-85
2021/09/27 04:12:32;;;;;;;3.15;1.35;;;;;;;;;;5084635;28;20055;-83
2021/09/27 04:15:07;;;;;;;2.58;1.20;;;;;;;;;;5084549;28;20043;-81
2021/09/27 04:17:56;;;;;;;2.75;1.52;;;;;;;;;;5084624;28;20068;-83
2021/09/27 04:20:26;;;;;;;2.22;1.15;;;;;;;;;;5082574;28;20169;-83
2021/09/27 04:23:09;;;;;;;2.20;1.38;;;;;;;;;;5084090;28;20072;-83
2021/09/27 04:25:54;;;;;;;2.25;1.25;;;;;;;;;;5080524;28;20055;-84
2021/09/27 04:28:39;;;;;;;2.08;1.30;;;;;;;;;;5082834;28;20525;-84
2021/09/27 04:31:32;;;;;;;1.95;1.15;;;;;;;;;;5072109;28;21255;-84
2021/09/27 04:33:58;;;;;;;4.15;1.50;;;;;;;;;;5063485;28;20029;-82
2021/09/27 04:36:27;;;;;;;2.28;1.45;;;;;;;;;;5064448;28;20028;-82
2021/09/27 04:38:56;;;;;;;3.15;1.38;;;;;;;;;;5082966;28;20059;-83
2021/09/27 04:41:22;;;;;;;3.10;1.58;;;;;;;;;;5083324;28;20063;-82
2021/09/27 04:44:02;;;;;;;2.63;1.33;;;;;;;;;;5084404;28;20499;-82
2021/09/27 04:46:49;;;;;;;2.28;1.50;;;;;;;;;;5080994;28;20066;-82
2021/09/27 04:49:35;;;;;;;2.42;1.40;;;;;;;;;;5074800;28;20123;-83
2021/09/27 04:52:21;;;;;;;3.97;1.52;;;;;;;;;;5034936;28;20064;-82
2021/09/27 04:54:47;;;;;;;3.20;1.58;;;;;;;;;;5070319;28;20028;-84
2021/09/27 04:57:14;;;;;;;3.25;1.65;;;;;;;;;;5080338;28;20056;-85
2021/09/27 04:59:43;;;;;;;2.58;1.50;;;;;;;;;;5085868;28;20420;-83
2021/09/27 05:02:30;;;;;;;2.92;1.45;;;;;;;;;;5068460;28;20047;-83
2021/09/27 05:05:08;;;;;;;3.67;1.55;;;;;;;;;;5061173;28;20066;-81
2021/09/27 05:07:44;;;;;;;2.30;1.23;;;;;;;;;;5078170;28;20028;-81
2021/09/27 05:10:29;;;;;;;2.83;1.40;;;;;;;;;;5084898;28;20545;-81
2021/09/27 05:12:58;;;;;;;2.33;1.27;;;;;;;;;;5076017;28;20028;-81
2021/09/27 05:15:25;;;;;;;2.00;1.17;;;;;;;;;;5067705;28;20048;-81
2021/09/27 05:18:02;;;;;;;2.50;1.15;;;;;;;;;;5067891;28;20112;-81
2021/09/27 05:20:47;;;;;;;3.95;1.38;;;;;;;;;;5085479;28;20514;-81
2021/09/27 05:23:37;;;;;;;2.03;1.20;;;;;;;;;;5070097;28;20048;-80
2021/09/27 05:26:09;;;;;;;2.08;1.27;;;;;;;;;;5053639;28;20058;-81
2021/09/27 05:28:41;;;;;;;2.60;1.52;;;;;;;;;;5069118;28;20044;-80
2021/09/27 05:31:08;;;;;;;2.28;1.50;;;;;;;;;;5056315;28;20492;-80
2021/09/27 05:33:42;;;;;;;2.53;1.40;;;;;;;;;;5059077;28;20630;-79
2021/09/27 05:36:34;;;;;;;2.42;1.33;;;;;;;;;;5045624;28;20028;-79
2021/09/27 05:39:24;;;;;;;2.70;1.70;;;;;;;;;;5048557;28;20982;-80
2021/09/27 05:42:09;;;;;;;2.53;1.50;;;;;;;;;;5081919;28;20141;-80
2021/09/27 05:44:42;;;;;;;2.15;1.30;;;;;;;;;;5058884;28;20094;-80
2021/09/27 05:47:32;;;;;;;2.50;1.50;;;;;;;;;;5062671;28;20397;-80
2021/09/27 05:50:02;;;;;;;2.80;1.25;;;;;;;;;;5085124;28;20024;-80
2021/09/27 05:52:41;;;;;;;2.25;1.40;;;;;;;;;;5079129;28;20114;-80
2021/09/27 05:55:17;;;;;;;3.58;1.65;;;;;;;;;;5073372;28;20036;-80
2021/09/27 05:57:43;;;;;;;3.38;1.60;;;;;;;;;;5058982;28;20049;-81
2021/09/27 06:00:26;;;;;;;2.47;1.50;;;;;;;;;;5064594;28;20468;-80
2021/09/27 06:03:12;;;;;;;3.05;1.70;;;;;;;;;;5086523;28;21324;-79
2021/09/27 06:05:41;;;;;;;2.85;1.67;;;;;;;;;;5061059;28;20060;-79
2021/09/27 06:08:20;;;;;;;2.72;1.67;;;;;;;;;;5063788;28;20570;-80
2021/09/27 06:10:46;;;;;;;4.07;1.70;;;;;;;;;;5065938;28;20072;-79
2021/09/27 06:13:12;;;;;;;3.10;1.77;;;;;;;;;;5068218;28;20455;-79
2021/09/27 06:15:46;;;;;;;3.22;1.77;;;;;;;;;;5094964;28;20511;-79
2021/09/27 06:18:12;;;;;;;4.07;1.70;;;;;;;;;;5063013;28;20075;-79
2021/09/27 06:21:08;;;;;;;2.70;1.50;;;;;;;;;;5083573;28;20160;-79
2021/09/27 06:23:51;;;;;;;2.63;1.60;;;;;;;;;;5074212;28;20048;-79
2021/09/27 06:26:19;;;;;;;3.05;1.65;;;;;;;;;;5066898;28;20116;-80
2021/09/27 06:29:04;;;;;;;2.63;1.80;;;;;;;;;;5084689;28;20188;-80
2021/09/27 06:31:49;;;;;;;2.50;1.70;;;;;;;;;;5084300;28;20064;-79
2021/09/27 06:34:23;;;;;;;2.70;1.73;;;;;;;;;;5068651;28;20575;-79
2021/09/27 06:36:50;;;;;;;4.57;1.90;;;;;;;;;;5064404;28;20090;-80
2021/09/27 06:39:19;;;;;;;3.47;1.77;;;;;;;;;;5086007;28;20070;-81
2021/09/27 06:41:50;;;;;;;3.45;1.92;;;;;;;;;;5062990;28;20029;-80
2021/09/27 06:44:17;;;;;;;3.33;2.10;;;;;;;;;;5067861;28;20028;-80
2021/09/27 06:46:45;;;;;;;2.83;1.77;;;;;;;;;;5067442;28;20032;-80
2021/09/27 06:49:11;;;;;;;3.10;1.90;;;;;;;;;;5090544;28;20125;-80
2021/09/27 06:51:41;;;;;;;2.63;1.88;;;;;;;;;;5069620;28;20064;-80
2021/09/27 06:54:09;;;;;;;3.45;2.10;;;;;;;;;;5063818;28;20492;-80
2021/09/27 06:56:35;;;;;;;2.80;1.77;;;;;;;;;;5085733;28;20143;-80
2021/09/27 06:59:02;;;;;;;3.45;2.08;;;;;;;;;;5066025;28;20495;-80
2021/09/27 07:01:28;;;;;;;3.45;1.88;;;;;;;;;;5066717;28;20032;-81
2021/09/27 07:03:56;;;;;;;3.08;1.83;;;;;;;;;;5087701;28;20060;-80
2021/09/27 07:06:22;;;;;;;3.00;2.17;;;;;;;;;;5088266;28;20032;-80
2021/09/27 07:08:48;;;;;;;3.08;2.00;;;;;;;;;;5069363;28;20116;-80
2021/09/27 07:11:15;;;;;;;4.78;2.05;;;;;;;;;;5082184;28;20082;-81
2021/09/27 07:13:43;;;;;;;3.13;2.00;;;;;;;;;;5064311;28;20097;-81
2021/09/27 07:16:10;;;;;;;2.13;1.65;;;;;;;;;;5083210;28;20064;-80
2021/09/27 07:18:37;;;;;;;2.92;1.85;;;;;;;;;;5086839;28;20055;-81
2021/09/27 07:21:05;;;;;;;3.35;2.15;;;;;;;;;;5075566;28;20063;-80
2021/09/27 07:23:37;;;;;;;3.35;1.98;;;;;;;;;;5079073;28;20121;-80
2021/09/27 07:26:04;;;;;;;3.05;2.08;;;;;;;;;;5079933;28;20041;-80
2021/09/27 07:28:31;;;;;;;3.50;2.10;;;;;;;;;;5051041;28;20056;-80
2021/09/27 07:30:57;;;;;;;3.30;1.90;;;;;;;;;;5082217;28;20366;-80
2021/09/27 07:33:24;;;;;;;3.20;2.10;;;;;;;;;;5049229;28;20035;-80
2021/09/27 07:35:50;;;;;;;2.50;2.20;;;;;;;;;;5065964;28;20036;-80
2021/09/27 07:38:17;;;;;;;2.83;2.00;;;;;;;;;;5062606;28;20060;-80
2021/09/27 07:40:43;;;;;;;2.88;1.92;;;;;;;;;;5082057;28;20063;-80
2021/09/27 07:43:10;;;;;;;3.25;1.95;;;;;;;;;;5063328;28;20057;-80
2021/09/27 07:45:37;;;;;;;3.03;1.90;;;;;;;;;;5061240;28;20037;-80
2021/09/27 07:48:10;;;;;;;2.83;1.92;;;;;;;;;;5075043;28;20048;-81
2021/09/27 07:50:37;;;;;;;3.25;2.28;;;;;;;;;;5053599;28;20068;-81
2021/09/27 07:53:04;;;;;;;3.45;2.22;;;;;;;;;;5067075;28;20032;-81
2021/09/27 07:55:31;;;;;;;3.83;2.17;;;;;;;;;;5089546;28;20556;-81
2021/09/27 07:57:57;;;;;;;2.80;2.10;;;;;;;;;;5047242;28;20055;-81
2021/09/27 08:00:24;;;;;;;2.78;2.10;;;;;;;;;;5048215;28;20021;-81
2021/09/27 08:02:51;;;;;;;3.45;2.17;;;;;;;;;;5067313;28;20326;-81
2021/09/27 08:05:19;;;;;;;3.40;2.30;;;;;;;;;;5057429;28;20025;-81
2021/09/27 08:07:45;;;;;;;3.67;2.20;;;;;;;;;;5067919;28;20028;-81
2021/09/27 08:10:12;;;;;;;3.30;2.38;;;;;;;;;;5052814;28;20067;-81
2021/09/27 08:12:39;;;;;;;3.08;2.22;;;;;;;;;;5060676;28;20056;-81
2021/09/27 08:15:07;;;;;;;3.30;2.30;;;;;;;;;;5064522;28;20024;-81
2021/09/27 08:17:34;;;;;;;4.07;2.20;;;;;;;;;;5057554;28;20040;-81
2021/09/27 08:20:02;;;;;;;3.35;2.35;;;;;;;;;;5082593;28;20032;-81
2021/09/27 08:22:29;;;;;;;3.03;2.30;;;;;;;;;;5069272;28;20028;-81
2021/09/27 08:24:55;;;;;;;4.03;2.22;;;;;;;;;;5092550;28;20028;-81
2021/09/27 08:27:22;;;;;;;3.45;2.33;;;;;;;;;;5091826;28;20532;-81
2021/09/27 08:29:48;;;;;;;2.92;1.98;;;;;;;;;;5072421;28;20063;-81
2021/09/27 08:32:14;;;;;;;3.08;2.20;;;;;;;;;;5073360;28;20448;-81
2021/09/27 08:34:43;;;;;;;3.25;2.20;;;;;;;;;;5071050;28;20033;-81
2021/09/27 08:37:10;;;;;;;2.75;2.00;;;;;;;;;;5093813;28;20524;-81
2021/09/27 08:39:36;;;;;;;2.90;2.15;;;;;;;;;;5092940;28;20411;-81
2021/09/27 08:42:03;;;;;;;3.03;1.95;;;;;;;;;;5073412;28;20036;-81
2021/09/27 08:44:49;;;;;;;3.25;2.38;;;;;;;;;;5069142;28;20395;-80
2021/09/27 08:47:25;;;;;;;3.92;2.20;;;;;;;;;;5091304;28;20488;-81
2021/09/27 08:49:55;;;;;;;2.85;2.05;;;;;;;;;;5069991;28;20033;-80
2021/09/27 08:52:23;;;;;;;3.08;2.17;;;;;;;;;;5071812;28;20442;-80
2021/09/27 08:54:51;;;;;;;3.33;2.20;;;;;;;;;;5071499;28;20029;-80
2021/09/27 08:57:36;;;;;;;2.95;2.25;;;;;;;;;;5089725;28;20036;-80
2021/09/27 09:00:08;;;;;;;3.00;2.28;;;;;;;;;;5066033;28;20111;-80
2021/09/27 09:02:56;;;;;;;2.92;1.90;;;;;;;;;;5060938;28;20033;-80
2021/09/27 09:05:28;;;;;;;2.88;2.13;;;;;;;;;;5070148;28;20389;-80
2021/09/27 09:08:17;;;;;;;3.05;2.20;;;;;;;;;;5072845;28;20098;-80
2021/09/27 09:10:47;;;;;;;3.45;2.10;;;;;;;;;;5080665;28;20028;-80
2021/09/27 09:13:16;;;;;;;3.20;2.05;;;;;;;;;;5090361;28;20036;-80
2021/09/27 09:15:43;;;;;;;3.53;2.30;;;;;;;;;;5077407;28;20089;-81
2021/09/27 09:18:12;;;;;;;2.60;1.80;;;;;;;;;;5054941;28;20047;-81
2021/09/27 09:20:51;;;;;;;3.38;2.30;;;;;;;;;;5087131;28;20396;-81
2021/09/27 09:23:22;;;;;;;3.03;1.95;;;;;;;;;;5075990;28;20052;-81
2021/09/27 09:25:49;;;;;;;3.20;2.28;;;;;;;;;;5059444;28;20733;-81
2021/09/27 09:28:15;;;;;;;2.78;2.13;;;;;;;;;;5083052;28;20040;-81
2021/09/27 09:31:11;;;;;;;3.05;2.30;;;;;;;;;;5075681;28;20032;-81
2021/09/27 09:33:38;;;;;;;3.38;2.25;;;;;;;;;;5072542;28;20093;-81
2021/09/27 09:36:05;;;;;;;3.35;2.10;;;;;;;;;;5088388;28;20503;-81
2021/09/27 09:38:34;;;;;;;2.72;2.20;;;;;;;;;;5088899;28;20063;-80
2021/09/27 09:41:00;;;;;;;4.22;2.30;;;;;;;;;;5072804;28;20028;-80
2021/09/27 09:43:31;;;;;;;3.45;2.30;;;;;;;;;;5086939;28;20113;-80
2021/09/27 09:46:03;;;;;;;2.78;2.17;;;;;;;;;;5072615;28;20199;-83
2021/09/27 09:48:30;;;;;;;3.33;2.33;;;;;;;;;;5084086;28;20028;-82
2021/09/27 09:50:58;;;;;;;4.00;2.33;;;;;;;;;;5071703;28;20028;-83
2021/09/27 09:53:32;;;;;;;3.20;2.20;;;;;;;;;;5068974;28;20068;-82
2021/09/27 09:56:02;;;;;;;3.03;2.20;;;;;;;;;;5055857;28;20082;-83
2021/09/27 09:58:33;;;;;;;2.90;2.25;;;;;;;;;;5084748;28;20114;-81
2021/09/27 10:01:01;;;;;;;3.45;2.20;;;;;;;;;;5051614;28;20036;-81
2021/09/27 10:03:31;;;;;;;3.58;2.42;;;;;;;;;;5067193;28;20048;-81
2021/09/27 10:06:04;;;;;;;3.00;2.23;;;;;;;;;;5086552;28;20073;-80
2021/09/27 10:08:31;;;;;;;3.70;2.30;;;;;;;;;;5090606;28;20437;-80
2021/09/27 10:10:59;;;;;;;3.40;2.75;;;;;;;;;;5090183;28;20041;-80
2021/09/27 10:13:29;;;;;;;3.58;2.25;;;;;;;;;;5077329;28;20033;-80
2021/09/27 10:15:56;;;;;;;2.97;2.25;;;;;;;;;;5071616;28;20589;-80
2021/09/27 10:18:25;;;;;;;3.38;2.35;;;;;;;;;;5072558;28;20377;-78
2021/09/27 10:21:05;;;;;;;3.78;2.50;;;;;;;;;;5084361;28;20056;-79
2021/09/27 10:23:35;;;;;;;3.35;2.22;;;;;;;;;;5067195;28;20066;-79
2021/09/27 10:26:10;;;;;;;3.40;2.42;;;;;;;;;;5082874;28;20055;-79
2021/09/27 10:28:40;;;;;;;3.40;2.40;;;;;;;;;;5073909;28;20058;-79
2021/09/27 10:31:08;;;;;;;2.95;2.28;;;;;;;;;;5049501;28;20041;-79
2021/09/27 10:33:37;;;;;;;2.97;2.45;;;;;;;;;;5078231;28;20056;-80
2021/09/27 10:36:17;;;;;;;3.40;2.53;;;;;;;;;;5069983;28;20158;-79
2021/09/27 10:38:49;;;;;;;2.97;2.35;;;;;;;;;;5055539;28;20063;-83
2021/09/27 10:41:15;;;;;;;3.35;2.60;;;;;;;;;;5081442;28;20070;-82
2021/09/27 10:43:42;;;;;;;4.25;2.63;;;;;;;;;;5081801;28;20515;-82
2021/09/27 10:46:09;;;;;;;4.43;2.80;;;;;;;;;;5067427;28;20105;-83
2021/09/27 10:48:37;;;;;;;3.10;2.42;;;;;;;;;;5070576;28;20064;-83
2021/09/27 10:51:06;;;;;;;4.13;2.40;;;;;;;;;;5078513;28;20060;-83
2021/09/27 10:53:52;;;;;;;3.70;3.00;;;;;;;;;;5064745;28;20098;-83
2021/09/27 10:56:19;;;;;;;4.30;3.15;;;;;;;;;;5069767;28;20021;-84
2021/09/27 10:58:54;;;;;;;3.15;2.50;;;;;;;;;;5082794;28;20055;-83
2021/09/27 11:01:41;;;;;;;3.45;2.78;;;;;;;;;;5090753;28;20104;-83
2021/09/27 11:04:22;;;;;;;3.10;2.47;;;;;;;;;;5079488;28;20089;-84
2021/09/27 11:06:51;;;;;;;4.00;2.90;;;;;;;;;;5073097;28;20683;-83
2021/09/27 11:09:18;;;;;;;4.10;2.65;;;;;;;;;;5076840;28;20826;-84
2021/09/27 11:11:56;;;;;;;3.35;2.60;;;;;;;;;;5068259;28;20101;-83
2021/09/27 11:14:28;;;;;;;3.58;2.80;;;;;;;;;;5065674;28;20040;-83
2021/09/27 11:16:56;;;;;;;3.47;2.78;;;;;;;;;;5082706;28;20104;-83
2021/09/27 11:19:35;;;;;;;3.47;2.50;;;;;;;;;;5078492;28;20426;-82
2021/09/27 11:22:13;;;;;;;4.18;2.85;;;;;;;;;;5088435;28;20445;-84
2021/09/27 11:24:42;;;;;;;3.42;2.45;;;;;;;;;;5087521;28;20064;-84
2021/09/27 11:27:29;;;;;;;3.92;2.60;;;;;;;;;;5069547;28;20040;-83
2021/09/27 11:29:57;;;;;;;4.22;2.90;;;;;;;;;;5066879;28;20078;-84
2021/09/27 11:32:25;;;;;;;4.78;2.97;;;;;;;;;;5084573;28;20113;-83
2021/09/27 11:34:57;;;;;;;3.20;2.50;;;;;;;;;;5087799;28;20062;-83
2021/09/27 11:37:26;;;;;;;3.35;2.60;;;;;;;;;;5082979;28;20060;-83
2021/09/27 11:40:01;;;;;;;3.33;2.85;;;;;;;;;;5086227;28;20060;-84
2021/09/27 11:42:36;;;;;;;3.08;2.50;;;;;;;;;;5068627;28;20040;-84
2021/09/27 11:45:09;;;;;;;4.68;3.15;;;;;;;;;;5087717;28;20097;-84
2021/09/27 11:47:42;;;;;;;4.18;2.97;;;;;;;;;;5077626;28;20028;-84
2021/09/27 11:53:40;;;;;;;3.70;2.75;;;;;;;;;;5028520;28;20071;-84
2021/09/27 11:56:07;;;;;;;3.60;2.70;;;;;;;;;;5084678;28;20101;-83
2021/09/27 11:58:39;;;;;;;3.85;2.72;;;;;;;;;;5085486;28;20372;-83
2021/09/27 12:01:10;;;;;;;3.90;2.42;;;;;;;;;;5084410;28;20085;-84
2021/09/27 12:03:36;;;;;;;4.35;2.72;;;;;;;;;;5063677;28;20097;-84
2021/09/27 12:06:09;;;;;;;3.63;3.08;;;;;;;;;;5082422;28;20115;-84
2021/09/27 12:08:54;;;;;;;4.03;2.78;;;;;;;;;;5072461;28;20157;-84
2021/09/27 12:11:21;;;;;;;4.90;2.80;;;;;;;;;;5074372;28;20066;-84
2021/09/27 12:13:55;;;;;;;3.58;2.85;;;;;;;;;;5083173;28;20044;-84
2021/09/27 12:16:26;;;;;;;4.65;2.97;;;;;;;;;;5077358;28;20055;-82
2021/09/27 12:19:13;;;;;;;4.38;2.97;;;;;;;;;;5066347;28;20036;-82
2021/09/27 12:21:41;;;;;;;4.20;3.10;;;;;;;;;;5091697;28;20032;-82
2021/09/27 12:24:10;;;;;;;3.78;2.70;;;;;;;;;;5066111;28;20565;-82
2021/09/27 12:26:40;;;;;;;4.07;3.20;;;;;;;;;;5064502;28;20032;-82
2021/09/27 12:29:10;;;;;;;4.20;2.85;;;;;;;;;;5066294;28;20090;-82
2021/09/27 12:31:37;;;;;;;4.03;2.92;;;;;;;;;;5066334;28;20060;-82
2021/09/27 12:34:12;;;;;;;3.55;2.70;;;;;;;;;;5082180;28;20068;-82
2021/09/27 12:36:39;;;;;;;3.85;2.95;;;;;;;;;;5083214;28;20032;-82
2021/09/27 12:39:07;;;;;;;3.95;3.10;;;;;;;;;;5082491;28;20052;-82
2021/09/27 12:41:33;;;;;;;3.58;2.80;;;;;;;;;;5068093;28;20032;-82
2021/09/27 12:44:07;;;;;;;3.50;2.67;;;;;;;;;;5068286;28;20066;-82
2021/09/27 12:46:34;;;;;;;3.75;2.80;;;;;;;;;;5061868;28;20028;-83
2021/09/27 12:49:03;;;;;;;4.00;2.78;;;;;;;;;;5072930;28;20036;-83
2021/09/27 12:51:36;;;;;;;4.90;3.10;;;;;;;;;;5083334;28;20063;-82
2021/09/27 12:54:04;;;;;;;3.30;2.70;;;;;;;;;;5074091;28;20497;-82
2021/09/27 12:56:31;;;;;;;3.67;2.78;;;;;;;;;;5065047;28;20036;-82
2021/09/27 12:59:13;;;;;;;4.60;2.80;;;;;;;;;;5068408;28;20064;-83
2021/09/27 13:01:39;;;;;;;;;;;;;;;;;;5048273;28;20056;-83
2021/09/27 13:04:22;;;;;;;3.90;2.70;;;;;;;;;;5077005;28;20384;-83
2021/09/27 13:06:53;;;;;;;4.50;3.03;;;;;;;;;;5070092;28;20044;-83
2021/09/27 13:09:21;;;;;;;3.72;2.80;;;;;;;;;;5078357;28;20125;-83
2021/09/27 13:11:51;;;;;;;4.20;2.83;;;;;;;;;;5083289;28;20528;-83
2021/09/27 13:14:17;;;;;;;3.53;3.00;;;;;;;;;;5085910;28;20044;-83
2021/09/27 13:16:45;;;;;;;2.88;2.47;;;;;;;;;;5080086;28;20068;-82
2021/09/27 13:19:32;;;;;;;4.15;2.70;;;;;;;;;;5088812;28;20036;-82
2021/09/27 13:21:58;;;;;;;2.90;2.20;;;;;;;;;;5075409;28;20060;-82
2021/09/27 13:24:29;;;;;;;2.88;2.33;;;;;;;;;;5069306;28;20064;-80
2021/09/27 13:27:01;;;;;;;3.90;2.90;;;;;;;;;;5089141;28;20086;-81
2021/09/27 13:29:39;;;;;;;4.30;2.75;;;;;;;;;;5084455;28;20044;-81
2021/09/27 13:32:15;;;;;;;3.72;2.95;;;;;;;;;;5069798;28;20060;-82
2021/09/27 13:34:43;;;;;;;4.68;2.85;;;;;;;;;;5065794;28;20056;-82
2021/09/27 13:37:30;;;;;;;4.95;2.90;;;;;;;;;;5090191;28;20082;-82
2021/09/27 13:39:58;;;;;;;3.83;2.70;;;;;;;;;;5081322;28;20055;-82
2021/09/27 13:42:38;;;;;;;3.83;2.83;;;;;;;;;;5066624;28;20063;-83
2021/09/27 13:45:05;;;;;;;4.05;2.72;;;;;;;;;;5052165;28;20036;-84
2021/09/27 13:47:32;;;;;;;3.72;2.92;;;;;;;;;;5065663;28;20056;-82
2021/09/27 13:49:58;;;;;;;3.30;2.35;;;;;;;;;;5073492;28;20064;-83
2021/09/27 13:52:37;;;;;;;3.80;2.80;;;;;;;;;;5092955;27;20472;-82
2021/09/27 13:55:06;;;;;;;3.47;2.80;;;;;;;;;;5087087;28;20078;-83
2021/09/27 13:57:33;;;;;;;3.58;2.60;;;;;;;;;;5064632;28;20454;-83
2021/09/27 14:00:00;;;;;;;3.90;2.88;;;;;;;;;;5087944;28;20453;-83
2021/09/27 14:02:26;;;;;;;4.78;2.78;;;;;;;;;;5086885;28;20928;-83
2021/09/27 14:04:53;;;;;;;3.17;2.42;;;;;;;;;;5086484;28;20055;-83
2021/09/27 14:07:19;;;;;;;3.03;2.58;;;;;;;;;;5086752;28;20067;-83
2021/09/27 14:09:50;;;;;;;4.20;2.70;;;;;;;;;;5065988;28;20048;-83
2021/09/27 14:12:17;;;;;;;3.10;2.50;;;;;;;;;;5079637;28;20036;-83
2021/09/27 14:14:43;;;;;;;3.20;2.80;;;;;;;;;;5077753;28;20074;-82
2021/09/27 14:17:10;;;;;;;3.47;2.60;;;;;;;;;;5075000;28;20025;-83
2021/09/27 14:19:36;;;;;;;3.03;2.50;;;;;;;;;;5059181;28;20517;-83
2021/09/27 14:22:05;;;;;;;3.35;2.53;;;;;;;;;;5089479;28;20032;-83
2021/09/27 14:24:32;;;;;;;3.92;2.80;;;;;;;;;;5091656;28;20561;-82
2021/09/27 14:27:01;;;;;;;3.58;2.70;;;;;;;;;;5079593;28;20085;-83
2021/09/27 14:29:31;;;;;;;3.55;2.70;;;;;;;;;;5076919;28;20078;-82
2021/09/27 14:31:58;;;;;;;3.33;2.38;;;;;;;;;;5071743;28;20045;-83
2021/09/27 14:34:25;;;;;;;3.72;2.72;;;;;;;;;;5059873;28;20020;-82
2021/09/27 14:36:51;;;;;;;3.58;2.80;;;;;;;;;;5091933;28;20036;-83
2021/09/27 14:39:19;;;;;;;4.10;2.78;;;;;;;;;;5089069;28;20036;-83
2021/09/27 14:41:46;;;;;;;3.22;2.55;;;;;;;;;;5073179;28;20089;-82
2021/09/27 14:44:13;;;;;;;3.65;2.65;;;;;;;;;;5072401;28;20029;-84
2021/09/27 14:46:43;;;;;;;3.35;2.53;;;;;;;;;;5070508;28;20109;-82
2021/09/27 14:49:10;;;;;;;5.22;2.70;;;;;;;;;;5092894;28;20557;-82
2021/09/27 14:51:37;;;;;;;3.90;2.88;;;;;;;;;;5086474;28;20125;-84
2021/09/27 14:54:03;;;;;;;3.85;2.65;;;;;;;;;;5083902;28;20512;-82
2021/09/27 14:56:30;;;;;;;3.85;3.10;;;;;;;;;;5079428;28;20520;-82
2021/09/27 14:58:57;;;;;;;5.05;2.70;;;;;;;;;;5089730;28;20043;-82
2021/09/27 15:01:23;;;;;;;3.90;3.08;;;;;;;;;;5083961;28;20037;-82
2021/09/27 15:03:51;;;;;;;3.70;2.85;;;;;;;;;;5089940;28;20031;-82
2021/09/27 15:06:22;;;;;;;5.53;3.40;;;;;;;;;;5093445;28;20395;-82
2021/09/27 15:08:49;;;;;;;4.05;3.22;;;;;;;;;;5093047;28;20040;-83
2021/09/27 15:11:16;;;;;;;4.32;2.80;;;;;;;;;;5059173;28;20033;-83